Time;durP1;ratioP1;P1;durP2;ratioP2;P2;SDS_P1;SDS_P2;PMS_P1;PMS_P2;Temp;Humidity;BMP_temperature;BMP_pressure;BME280_temperature;BME280_humidity;BME280_pressure;Samples;Min_cycle;Max_cycle;Signal;HPM_P1;HPM_P2
2022/12/05 00:01:36;;;;;;;11.43;8.00;;;;;;;0.17;88.38;96328.79;1676657;85;21491;-75
2022/12/05 00:04:06;;;;;;;10.17;6.07;;;;;;;0.17;88.01;96330.09;1676584;86;21017;-75
2022/12/05 00:06:36;;;;;;;13.80;7.37;;;;;;;0.23;88.55;96326.41;1676683;86;21045;-75
2022/12/05 00:09:05;;;;;;;5.73;3.50;;;;;;;0.24;88.65;96333.36;1676471;85;21096;-75
2022/12/05 00:11:35;;;;;;;18.30;10.60;;;;;;;0.21;88.62;96326.35;1676615;85;21032;-75
2022/12/05 00:14:04;;;;;;;23.27;14.67;;;;;;;0.16;88.74;96330.51;1676651;86;21020;-75
2022/12/05 00:16:32;;;;;;;29.27;15.67;;;;;;;0.18;88.87;96335.34;1676696;86;21518;-75
2022/12/05 00:19:01;;;;;;;20.07;11.13;;;;;;;0.18;88.54;96336.64;1676747;86;21068;-75
2022/12/05 00:21:31;;;;;;;19.23;11.00;;;;;;;0.28;89.19;96335.63;1676559;86;21093;-75
2022/12/05 00:24:00;;;;;;;15.70;10.07;;;;;;;0.37;89.43;96322.95;1676583;86;20977;-75
2022/12/05 00:26:27;;;;;;;16.23;10.50;;;;;;;0.47;89.54;96335.40;1676751;86;21507;-75
2022/12/05 00:28:56;;;;;;;16.07;9.63;;;;;;;0.56;89.50;96330.51;1672791;85;20985;-75
2022/12/05 00:31:24;;;;;;;17.63;9.37;;;;;;;0.66;89.06;96336.88;1676669;85;21073;-75
2022/12/05 00:33:52;;;;;;;15.93;9.77;;;;;;;0.64;88.38;96334.64;1676788;85;21041;-75
2022/12/05 00:36:26;;;;;;;11.43;7.17;;;;;;;0.60;88.04;96336.67;1675924;84;21173;-75
2022/12/05 00:38:54;;;;;;;10.25;5.67;;;;;;;0.70;89.09;96340.02;1674784;86;21072;-75
2022/12/05 00:41:25;;;;;;;5.53;3.67;;;;;;;0.76;88.81;96338.92;1674812;84;21049;-75
2022/12/05 00:43:53;;;;;;;6.50;3.97;;;;;;;0.90;89.29;96340.63;1674784;86;21033;-75
2022/12/05 00:46:26;;;;;;;6.33;4.13;;;;;;;0.96;88.81;96334.73;1674809;84;21057;-75
2022/12/05 00:48:55;;;;;;;13.53;7.33;;;;;;;0.90;88.38;96334.14;1675034;86;21543;-75
2022/12/05 00:51:27;;;;;;;19.37;10.80;;;;;;;0.88;88.41;96331.91;1674744;84;21005;-75
2022/12/05 00:53:56;;;;;;;16.20;9.93;;;;;;;0.88;88.35;96334.50;1674760;83;21463;-75
2022/12/05 00:56:26;;;;;;;18.20;10.87;;;;;;;0.84;88.12;96337.44;1674881;86;21503;-75
2022/12/05 00:58:55;;;;;;;14.17;9.87;;;;;;;0.78;87.80;96335.05;1674796;84;21519;-75
2022/12/05 01:01:27;;;;;;;14.67;9.97;;;;;;;0.71;87.58;96339.62;1674896;84;21029;-75
2022/12/05 01:03:56;;;;;;;15.70;9.70;;;;;;;0.63;87.53;96332.86;1674999;86;20975;-75
2022/12/05 01:06:25;;;;;;;15.83;10.40;;;;;;;0.62;87.98;96336.30;1704331;84;21362;-75
2022/12/05 01:08:54;;;;;;;16.93;9.70;;;;;;;0.70;88.46;96332.65;1677020;84;21002;-75
2022/12/05 01:11:22;;;;;;;16.60;9.70;;;;;;;0.68;88.03;96333.92;1704170;84;21053;-75
2022/12/05 01:13:49;;;;;;;14.20;8.67;;;;;;;0.67;87.96;96328.66;1704181;84;21020;-75
2022/12/05 01:16:24;;;;;;;14.87;9.07;;;;;;;0.70;88.56;96329.63;1704185;84;21491;-75
2022/12/05 01:18:52;;;;;;;18.27;10.10;;;;;;;0.86;89.25;96333.17;1704363;84;21038;-75
2022/12/05 01:21:20;;;;;;;16.70;10.03;;;;;;;0.96;88.90;96323.95;1704264;84;21045;-75
2022/12/05 01:23:47;;;;;;;16.67;9.30;;;;;;;1.00;88.47;96319.71;1704216;84;21057;-75
2022/12/05 01:26:17;;;;;;;11.60;6.73;;;;;;;1.18;89.50;96322.84;1704159;84;21085;-75
2022/12/05 01:28:45;;;;;;;14.53;8.10;;;;;;;1.26;88.90;96315.27;1704302;84;21037;-75
2022/12/05 01:31:25;;;;;;;13.90;8.50;;;;;;;1.24;88.37;96317.84;1704191;84;21026;-75
2022/12/05 01:33:54;;;;;;;14.27;8.50;;;;;;;1.32;89.08;96321.09;1704340;84;21515;-75
2022/12/05 01:36:22;;;;;;;14.07;7.43;;;;;;;1.35;88.63;96314.67;1705167;84;21068;-75
2022/12/05 01:38:49;;;;;;;13.10;7.40;;;;;;;1.34;88.11;96318.12;1709095;84;21555;-75
2022/12/05 01:41:20;;;;;;;13.23;7.13;;;;;;;1.34;88.03;96317.69;1709258;84;20985;-75
2022/12/05 01:44:13;;;;;;;10.47;7.57;;;;;;;1.20;87.39;96313.80;1709344;84;21072;-75
2022/12/05 01:46:47;;;;;;;17.73;10.13;;;;;;;1.12;87.45;96317.91;1710055;84;21021;-75
2022/12/05 01:49:31;;;;;;;15.80;10.53;;;;;;;1.08;87.54;96321.72;1709156;84;21013;-75
2022/12/05 01:52:07;;;;;;;;;;;;;;;0.96;87.01;96323.04;1711953;84;21460;-75
2022/12/05 01:54:36;;;;;;;15.33;9.03;;;;;;;0.82;87.02;96320.91;1709060;84;20415;-75
2022/12/05 01:57:07;;;;;;;17.20;11.03;;;;;;;0.77;87.84;96321.20;1709229;84;21524;-75
2022/12/05 01:59:39;;;;;;;14.97;8.47;;;;;;;0.74;87.94;96317.63;1709261;84;21033;-75
2022/12/05 02:02:06;;;;;;;12.83;7.00;;;;;;;0.75;88.16;96315.48;1709266;84;21041;-75
2022/12/05 02:04:44;;;;;;;12.43;7.37;;;;;;;0.79;88.26;96306.97;1709232;84;21016;-75
2022/12/05 02:07:11;;;;;;;16.77;10.47;;;;;;;0.84;88.72;96308.86;1708833;84;21077;-75
2022/12/05 02:09:38;;;;;;;16.60;10.07;;;;;;;0.97;89.30;96311.41;1709125;84;21516;-75
2022/12/05 02:12:05;;;;;;;17.00;10.80;;;;;;;1.13;89.40;96307.95;1709161;84;21082;-75
2022/12/05 02:14:55;;;;;;;14.80;10.33;;;;;;;1.27;89.50;96311.42;1709169;84;21022;-75
2022/12/05 02:18:03;;;;;;;10.40;7.60;;;;;;;1.33;88.90;96309.83;1709287;84;21037;-75
2022/12/05 02:21:01;;;;;;;8.67;5.50;;;;;;;1.38;88.73;96312.14;1688108;84;21038;-75
2022/12/05 02:23:54;;;;;;;10.27;5.87;;;;;;;1.35;88.21;96308.16;1686978;84;21010;-75
2022/12/05 02:26:40;;;;;;;8.43;5.03;;;;;;;1.33;88.50;96310.70;1709665;84;21002;-75
2022/12/05 02:29:45;;;;;;;6.50;4.73;;;;;;;1.37;88.50;96314.30;1709352;84;21072;-75
2022/12/05 02:32:44;;;;;;;7.67;4.83;;;;;;;1.30;88.12;96311.93;1709241;84;21053;-75
2022/12/05 02:35:45;;;;;;;9.43;5.07;;;;;;;1.22;87.94;96310.41;1686023;84;21045;-75
2022/12/05 02:38:32;;;;;;;9.43;5.97;;;;;;;1.19;88.58;96310.33;1706077;84;21033;-75
2022/12/05 02:41:10;;;;;;;7.30;4.67;;;;;;;1.22;88.41;96307.81;1710015;83;21026;-75
2022/12/05 02:43:58;;;;;;;7.87;4.80;;;;;;;1.20;88.09;96312.08;1711714;84;21144;-75
2022/12/05 02:46:29;;;;;;;7.93;4.53;;;;;;;1.26;88.72;96320.08;1712338;84;21080;-75
2022/12/05 02:49:00;;;;;;;8.20;5.73;;;;;;;1.26;88.34;96317.86;1712027;84;21479;-75
2022/12/05 02:51:32;;;;;;;11.70;6.60;;;;;;;1.21;88.09;96317.76;1711827;84;21595;-75
2022/12/05 02:54:03;;;;;;;9.17;5.60;;;;;;;1.23;88.72;96311.28;1712000;84;21049;-75
2022/12/05 02:56:34;;;;;;;5.97;4.43;;;;;;;1.26;88.53;96314.88;1681592;84;21005;-75
2022/12/05 02:59:01;;;;;;;5.60;3.90;;;;;;;1.36;89.15;96316.02;1711784;84;21100;-75
2022/12/05 03:01:31;;;;;;;5.67;3.80;;;;;;;1.47;89.16;96313.72;1707349;84;21013;-75
2022/12/05 03:04:02;;;;;;;5.13;3.70;;;;;;;1.59;89.43;96315.75;1687853;84;21045;-75
2022/12/05 03:06:40;;;;;;;6.77;4.50;;;;;;;1.63;88.85;96313.71;1711771;84;21041;-75
2022/12/05 03:09:40;;;;;;;7.23;4.60;;;;;;;1.68;88.80;96313.41;1710824;83;21061;-75
2022/12/05 03:12:24;;;;;;;7.13;4.90;;;;;;;1.80;88.92;96318.08;1711640;84;21166;-75
2022/12/05 03:15:05;;;;;;;16.23;8.47;;;;;;;1.63;87.47;96309.38;1711868;84;21017;-75
2022/12/05 03:17:37;;;;;;;78.97;27.63;;;;;;;1.47;87.31;96312.41;1711744;84;21033;-75
2022/12/05 03:20:21;;;;;;;59.27;23.97;;;;;;;1.53;88.33;96315.17;1671439;86;21582;-75
2022/12/05 03:22:58;;;;;;;10.70;6.87;;;;;;;1.50;88.34;96314.67;1672789;85;21513;-75
2022/12/05 03:25:30;;;;;;;9.57;6.40;;;;;;;1.55;88.74;96307.42;1672527;85;20975;-75
2022/12/05 03:28:05;;;;;;;9.67;6.23;;;;;;;1.56;88.57;96310.47;1672954;85;21030;-75
2022/12/05 03:30:37;;;;;;;10.30;6.20;;;;;;;1.54;88.36;96310.84;1668577;85;21441;-75
2022/12/05 03:33:21;;;;;;;11.27;6.37;;;;;;;1.53;88.17;96309.09;1672795;85;21050;-75
2022/12/05 03:35:56;;;;;;;19.30;8.83;;;;;;;1.52;88.03;96306.92;1672803;85;20997;-75
2022/12/05 03:38:28;;;;;;;13.27;7.60;;;;;;;1.43;87.41;96311.43;1674214;85;21030;-75
2022/12/05 03:41:40;;;;;;;50.40;24.47;;;;;;;1.37;87.41;96314.30;1674173;86;21045;-75
2022/12/05 03:44:31;;;;;;;61.20;26.87;;;;;;;1.30;88.13;96313.23;1674528;86;21555;-75
2022/12/05 03:47:11;;;;;;;52.13;21.00;;;;;;;1.31;88.77;96312.41;1672700;86;21022;-75
2022/12/05 03:49:46;;;;;;;37.63;18.30;;;;;;;1.29;88.53;96318.85;1674570;86;21041;-75
2022/12/05 03:52:18;;;;;;;33.63;16.43;;;;;;;1.27;88.65;96317.92;1674575;86;21034;-74
2022/12/05 03:54:55;;;;;;;51.90;23.80;;;;;;;1.39;89.42;96312.63;1673366;86;21054;-74
2022/12/05 03:57:42;;;;;;;53.07;23.50;;;;;;;1.42;88.64;96320.08;1674613;86;21025;-74
2022/12/05 04:00:21;;;;;;;55.37;23.50;;;;;;;1.41;88.45;96320.02;1672320;85;20998;-74
2022/12/05 04:02:59;;;;;;;50.43;22.53;;;;;;;1.55;89.17;96317.41;1674717;86;21488;-74
2022/12/05 04:05:47;;;;;;;33.67;16.67;;;;;;;1.63;89.28;96317.61;1674356;86;21520;-74
2022/12/05 04:08:34;;;;;;;21.67;11.07;;;;;;;1.78;89.54;96315.84;1674586;86;21089;-74
2022/12/05 04:11:05;;;;;;;18.90;10.17;;;;;;;1.86;89.21;96319.10;1673513;86;21038;-74
2022/12/05 04:13:37;;;;;;;12.27;8.07;;;;;;;1.91;89.64;96315.33;1674774;86;21583;-74
2022/12/05 04:19:27;;;;;;;11.10;7.03;;;;;;;1.87;89.10;96313.08;1674564;86;21528;-74
2022/12/05 04:21:56;;;;;;;13.83;8.90;;;;;;;1.93;89.39;96324.06;1674509;86;21053;-74
2022/12/05 04:27:55;;;;;;;19.73;11.37;;;;;;;1.91;88.86;96318.80;1674650;86;21504;-74
2022/12/05 04:30:33;;;;;;;20.03;11.13;;;;;;;1.87;88.53;96325.22;1674645;86;21476;-74
2022/12/05 04:33:16;;;;;;;21.60;11.17;;;;;;;1.76;88.00;96322.73;1675060;86;21058;-75
2022/12/05 04:35:58;;;;;;;16.87;10.40;;;;;;;1.73;88.09;96329.60;1674658;86;21073;-75
2022/12/05 04:38:50;;;;;;;17.67;9.70;;;;;;;1.70;88.20;96323.02;1663840;84;21042;-75
2022/12/05 04:41:31;;;;;;;14.67;8.70;;;;;;;1.68;88.21;96322.09;1701423;84;21571;-74
2022/12/05 04:44:03;;;;;;;15.90;9.57;;;;;;;1.73;88.48;96315.30;1699621;84;21097;-74
2022/12/05 04:46:30;;;;;;;17.80;9.63;;;;;;;1.70;88.13;96315.64;1701632;84;21037;-74
2022/12/05 04:49:01;;;;;;;21.57;10.93;;;;;;;1.66;88.04;96315.09;1701520;84;21041;-74
2022/12/05 04:51:33;;;;;;;74.73;27.63;;;;;;;1.71;88.33;96329.10;1701384;84;21042;-74
2022/12/05 04:54:04;;;;;;;38.27;16.37;;;;;;;1.78;88.66;96322.36;1701482;84;21142;-75
2022/12/05 04:56:35;;;;;;;21.47;11.80;;;;;;;1.84;88.86;96323.80;1701223;84;21022;-75
2022/12/05 04:59:02;;;;;;;16.30;9.50;;;;;;;1.86;88.83;96319.53;1701654;84;21006;-74
2022/12/05 05:01:40;;;;;;;18.57;9.33;;;;;;;1.93;89.53;96321.03;1701543;84;21071;-75
2022/12/05 05:04:25;;;;;;;23.30;12.50;;;;;;;2.04;89.23;96320.03;1701488;84;21010;-75
2022/12/05 05:06:51;;;;;;;21.83;11.87;;;;;;;2.10;89.06;96325.38;1700566;84;21045;-75
2022/12/05 05:09:18;;;;;;;17.37;9.97;;;;;;;2.18;89.39;96316.89;1701608;84;21026;-75
2022/12/05 05:11:45;;;;;;;19.63;11.00;;;;;;;2.21;89.01;96317.84;1701302;84;21061;-75
2022/12/05 05:14:11;;;;;;;19.03;10.23;;;;;;;2.27;89.22;96316.70;1701633;84;21014;-75
2022/12/05 05:16:41;;;;;;;15.80;9.17;;;;;;;2.23;88.15;96325.70;1701577;84;21090;-75
2022/12/05 05:19:10;;;;;;;32.70;17.77;;;;;;;2.18;88.30;96322.98;1701395;84;21055;-75
2022/12/05 05:21:41;;;;;;;43.93;26.27;;;;;;;2.21;88.83;96324.34;1701418;84;21544;-74
2022/12/05 05:24:10;;;;;;;39.40;22.30;;;;;;;2.15;87.97;96325.08;1701444;84;21515;-75
2022/12/05 05:26:42;;;;;;;30.87;18.00;;;;;;;2.01;87.89;96326.44;1701265;84;21097;-75
2022/12/05 05:29:10;;;;;;;34.57;18.90;;;;;;;1.91;88.00;96328.34;1685685;84;21022;-75
2022/12/05 05:31:38;;;;;;;45.77;25.07;;;;;;;1.81;87.76;96325.91;1701669;84;21054;-74
2022/12/05 05:34:05;;;;;;;48.70;24.50;;;;;;;1.73;87.83;96333.50;1701633;84;21503;-74
2022/12/05 05:36:32;;;;;;;27.17;14.93;;;;;;;1.70;87.97;96328.66;1701194;84;21073;-75
2022/12/05 05:39:00;;;;;;;27.40;15.93;;;;;;;1.75;88.43;96332.69;1685169;84;21081;-75
2022/12/05 05:41:31;;;;;;;29.47;16.60;;;;;;;1.75;88.55;96339.19;1704380;84;21575;-75
2022/12/05 05:43:59;;;;;;;29.00;16.57;;;;;;;1.75;88.38;96340.48;1704447;84;21132;-75
2022/12/05 05:46:29;;;;;;;26.30;16.57;;;;;;;1.83;88.98;96335.06;1704439;84;21519;-75
2022/12/05 05:48:57;;;;;;;24.07;14.57;;;;;;;1.87;89.04;96336.92;1704447;84;21030;-75
2022/12/05 05:51:26;;;;;;;25.40;14.83;;;;;;;1.99;89.49;96332.44;1704481;84;21045;-75
2022/12/05 05:53:53;;;;;;;26.10;13.77;;;;;;;2.00;88.88;96335.53;1704265;84;21895;-74
2022/12/05 05:56:20;;;;;;;23.77;13.70;;;;;;;1.97;88.31;96332.84;1704316;84;21070;-78
2022/12/05 05:58:47;;;;;;;22.77;14.60;;;;;;;1.95;88.49;96337.58;1704394;84;21037;-79
2022/12/05 06:01:19;;;;;;;17.97;10.87;;;;;;;2.11;89.37;96341.45;1703571;84;21017;-79
2022/12/05 06:03:45;;;;;;;16.47;11.90;;;;;;;2.13;88.72;96337.59;1704362;84;21026;-69
2022/12/05 06:06:14;;;;;;;16.07;7.90;;;;;;;2.11;88.44;96340.15;1703533;84;21069;-74
2022/12/05 06:08:43;;;;;;;8.10;6.07;;;;;;;2.13;88.49;96344.11;1703588;84;21108;-82
2022/12/05 06:11:14;;;;;;;20.70;11.57;;;;;;;2.15;88.69;96338.52;1703880;84;21021;-74
2022/12/05 06:13:41;;;;;;;21.10;11.83;;;;;;;2.19;89.00;96330.36;1704146;84;21046;-80
2022/12/05 06:16:11;;;;;;;17.67;12.63;;;;;;;2.22;88.98;96337.84;1704015;84;21038;-76
2022/12/05 06:18:38;;;;;;;20.43;12.90;;;;;;;2.21;88.47;96343.00;1704861;84;21029;-76
2022/12/05 06:21:07;;;;;;;24.67;14.90;;;;;;;2.19;88.61;96339.47;1703862;84;21048;-80
2022/12/05 06:23:35;;;;;;;32.23;17.00;;;;;;;2.28;89.33;96342.32;1703888;84;21029;-75
2022/12/05 06:26:04;;;;;;;44.50;26.67;;;;;;;2.35;89.47;96337.30;1703990;84;21606;-72
2022/12/05 06:28:31;;;;;;;56.77;32.57;;;;;;;2.41;89.15;96340.47;1703842;84;21512;-75
2022/12/05 06:30:58;;;;;;;38.93;26.63;;;;;;;2.35;88.44;96339.03;1678099;84;21065;-74
2022/12/05 06:33:24;;;;;;;34.57;21.47;;;;;;;2.32;88.67;96349.38;1704213;84;21157;-80
2022/12/05 06:36:05;;;;;;;28.60;17.43;;;;;;;2.24;88.21;96349.58;1703796;84;21030;-76
2022/12/05 06:38:32;;;;;;;32.23;21.03;;;;;;;2.15;88.16;96355.02;1703908;84;21532;-71
2022/12/05 06:40:59;;;;;;;43.77;25.10;;;;;;;2.13;88.57;96353.22;1703982;84;21037;-76
2022/12/05 06:43:26;;;;;;;101.97;50.93;;;;;;;2.11;88.42;96362.70;1703722;84;21049;-74
2022/12/05 06:45:53;;;;;;;128.10;59.23;;;;;;;2.05;88.37;96358.66;1703862;84;21038;-76
2022/12/05 06:48:20;;;;;;;100.80;49.10;;;;;;;2.04;88.60;96365.98;1704030;84;21030;-71
2022/12/05 06:50:52;;;;;;;69.43;33.57;;;;;;;2.12;89.31;96368.39;1704111;84;21095;-72
2022/12/05 06:53:19;;;;;;;32.87;19.67;;;;;;;2.24;89.79;96363.47;1704216;84;21080;-71
2022/12/05 06:56:03;;;;;;;87.43;41.17;;;;;;;2.30;89.28;96370.59;1703490;84;22416;-72
2022/12/05 06:58:30;;;;;;;71.90;37.78;;;;;;;2.34;89.60;96373.31;1675070;84;21112;-75
2022/12/05 07:03:47;;;;;;;63.37;34.27;;;;;;;2.45;89.65;96375.31;1706670;84;20951;-76
2022/12/05 07:06:11;;;;;;;58.07;33.03;;;;;;;2.48;89.61;96384.06;1708217;83;21527;-74
2022/12/05 07:08:38;;;;;;;44.80;26.07;;;;;;;2.53;89.22;96380.28;1674623;86;21031;-78
2022/12/05 07:11:05;;;;;;;38.57;23.77;;;;;;;2.51;88.82;96389.34;1674278;85;21073;-73
2022/12/05 07:13:32;;;;;;;30.57;20.30;;;;;;;2.50;88.75;96381.52;1670499;86;21088;-75
2022/12/05 07:15:59;;;;;;;48.30;29.73;;;;;;;2.51;88.87;96384.14;1669948;86;21652;-72
2022/12/05 07:18:26;;;;;;;48.37;33.77;;;;;;;2.56;89.01;96395.55;1670869;86;21103;-71
2022/12/05 07:21:00;;;;;;;53.13;36.17;;;;;;;2.59;89.24;96391.72;1670874;86;21558;-70
2022/12/05 07:23:27;;;;;;;56.88;34.92;;;;;;;2.63;89.33;96395.30;1670622;86;21055;-74
2022/12/05 07:25:54;;;;;;;45.17;29.87;;;;;;;2.70;89.62;96391.13;1670439;86;21071;-74
2022/12/05 07:28:20;;;;;;;67.77;40.73;;;;;;;2.78;89.59;96389.59;1670793;86;21091;-76
2022/12/05 07:30:47;;;;;;;126.70;61.00;;;;;;;2.76;89.19;96399.96;1670819;86;21027;-84
2022/12/05 07:33:14;;;;;;;82.47;49.57;;;;;;;2.79;89.69;96398.72;1670897;86;21131;-74
2022/12/05 07:35:41;;;;;;;95.03;51.07;;;;;;;2.83;89.60;96394.48;1670601;86;21051;-80
2022/12/05 07:38:07;;;;;;;108.57;56.60;;;;;;;2.80;89.25;96397.90;1672948;85;21157;-77
2022/12/05 07:40:37;;;;;;;95.33;51.67;;;;;;;2.81;89.53;96392.26;1674994;86;21105;-75
2022/12/05 07:43:03;;;;;;;91.00;51.73;;;;;;;2.82;89.35;96400.52;1669551;86;21568;-78
2022/12/05 07:45:30;;;;;;;71.33;43.80;;;;;;;2.76;88.92;96397.35;1675238;86;21022;-76
2022/12/05 07:47:56;;;;;;;56.97;33.73;;;;;;;2.68;88.73;96404.11;1644310;86;21038;-74
2022/12/05 07:50:24;;;;;;;57.23;33.27;;;;;;;2.65;89.08;96409.68;1670938;86;21070;-77
2022/12/05 07:52:51;;;;;;;52.43;32.67;;;;;;;2.62;89.20;96412.18;1670798;86;21054;-78
2022/12/05 07:55:18;;;;;;;59.37;33.70;;;;;;;2.57;89.12;96410.36;1675917;85;21567;-78
2022/12/05 07:57:45;;;;;;;45.83;29.13;;;;;;;2.55;89.04;96408.13;1658895;86;21066;-79
2022/12/05 08:00:13;;;;;;;39.83;24.23;;;;;;;2.60;89.29;96408.26;1666760;86;21125;-72
2022/12/05 08:02:40;;;;;;;34.50;23.80;;;;;;;2.64;89.40;96407.47;1646796;87;21018;-72
2022/12/05 08:05:07;;;;;;;39.47;25.43;;;;;;;2.69;89.46;96404.55;1655318;86;21140;-74
2022/12/05 08:07:33;;;;;;;28.13;19.00;;;;;;;2.71;89.50;96405.48;1672022;86;21046;-69
2022/12/05 08:10:00;;;;;;;24.93;17.23;;;;;;;2.76;89.63;96402.99;1672284;86;21057;-70
2022/12/05 08:12:28;;;;;;;27.40;17.10;;;;;;;2.86;90.12;96409.31;1672188;86;21041;-72
2022/12/05 08:14:54;;;;;;;23.93;15.97;;;;;;;2.95;90.52;96400.00;1672275;86;21583;-76
2022/12/05 08:17:21;;;;;;;24.53;16.97;;;;;;;3.02;90.26;96398.39;1671988;85;21029;-77
2022/12/05 08:19:47;;;;;;;24.10;17.27;;;;;;;3.10;90.04;96403.39;1672171;85;21049;-75
2022/12/05 08:22:14;;;;;;;24.37;16.03;;;;;;;3.16;90.17;96405.25;1671994;86;21571;-65
2022/12/05 08:24:42;;;;;;;23.53;16.87;;;;;;;3.27;90.63;96401.58;1671868;86;21096;-81
2022/12/05 08:27:09;;;;;;;28.97;17.73;;;;;;;3.33;90.27;96400.42;1671695;86;21065;-74
2022/12/05 08:29:36;;;;;;;26.50;17.97;;;;;;;3.42;90.10;96395.39;1671921;86;21175;-72
2022/12/05 08:32:03;;;;;;;23.20;17.23;;;;;;;3.38;89.26;96401.41;1671790;86;21096;-77
2022/12/05 08:34:29;;;;;;;28.00;18.00;;;;;;;3.34;88.96;96399.56;1672128;86;21049;-70
2022/12/05 08:36:56;;;;;;;24.20;17.80;;;;;;;3.39;89.40;96390.98;1671972;85;21652;-68
2022/12/05 08:39:23;;;;;;;29.37;20.80;;;;;;;3.53;90.31;96390.39;1673356;85;21070;-71
2022/12/05 08:41:50;;;;;;;28.23;19.40;;;;;;;3.62;90.09;96394.08;1642305;86;21062;-73
2022/12/05 08:44:17;;;;;;;36.23;22.37;;;;;;;3.70;90.14;96387.72;1673520;86;21536;-70
2022/12/05 08:46:48;;;;;;;34.87;23.27;;;;;;;3.67;89.35;96385.92;1673314;85;21041;-74
2022/12/05 08:49:16;;;;;;;34.17;24.60;;;;;;;3.59;88.70;96390.11;1673350;86;21022;-69
2022/12/05 08:51:43;;;;;;;36.17;22.50;;;;;;;3.55;89.03;96386.09;1673255;86;21093;-67
2022/12/05 08:54:11;;;;;;;31.50;21.83;;;;;;;3.57;89.44;96391.80;1673470;86;21078;-69
2022/12/05 08:56:37;;;;;;;36.93;23.60;;;;;;;3.60;89.40;96390.98;1672949;86;21074;-71
2022/12/05 08:59:05;;;;;;;32.27;20.73;;;;;;;3.55;88.99;96383.05;1673653;86;21524;-78
2022/12/05 09:01:37;;;;;;;51.27;35.97;;;;;;;3.42;88.54;96382.34;1673802;85;21121;-72
2022/12/05 09:04:03;;;;;;;46.93;30.00;;;;;;;3.30;88.59;96384.68;1674002;86;21121;-73
2022/12/05 09:06:33;;;;;;;35.63;23.50;;;;;;;3.25;89.03;96380.66;1674256;85;21023;-72
2022/12/05 09:09:03;;;;;;;38.83;23.60;;;;;;;3.21;89.01;96378.85;1674243;85;21167;-69
2022/12/05 09:11:34;;;;;;;34.77;20.47;;;;;;;3.14;89.07;96376.95;1674124;86;21505;-70
2022/12/05 09:14:01;;;;;;;37.80;23.40;;;;;;;3.08;88.85;96378.13;1674303;85;21537;-72
2022/12/05 09:16:34;;;;;;;45.67;29.53;;;;;;;3.00;88.85;96374.91;1674003;86;21035;-75
2022/12/05 09:19:02;;;;;;;44.05;28.32;;;;;;;2.99;88.93;96374.87;1674418;86;21035;-71
2022/12/05 09:21:31;;;;;;;44.03;29.40;;;;;;;2.98;89.03;96369.20;1673805;86;21087;-68
2022/12/05 09:23:59;;;;;;;45.60;31.27;;;;;;;2.99;89.18;96369.22;1673987;85;21576;-68
2022/12/05 09:26:27;;;;;;;36.60;25.07;;;;;;;3.08;89.66;96375.09;1674331;86;21476;-69
2022/12/05 09:28:54;;;;;;;39.87;25.83;;;;;;;3.18;90.17;96372.27;1674380;86;21042;-72
2022/12/05 09:31:29;;;;;;;42.47;29.40;;;;;;;3.29;90.56;96366.85;1665646;85;21061;-69
2022/12/05 09:33:56;;;;;;;49.13;31.60;;;;;;;3.39;90.62;96364.03;1674281;85;21027;-81
2022/12/05 09:36:27;;;;;;;59.27;37.07;;;;;;;3.50;90.82;96366.42;1673213;86;21086;-72
2022/12/05 09:39:01;;;;;;;65.37;38.37;;;;;;;3.59;90.89;96358.80;1675910;85;21069;-85
2022/12/05 09:42:08;;;;;;;62.87;39.23;;;;;;;3.72;90.92;96360.36;1681405;85;21029;-76
2022/12/05 09:45:01;;;;;;;63.27;39.50;;;;;;;3.78;90.50;96345.71;1681056;85;21543;-86
2022/12/05 09:47:42;;;;;;;76.20;46.50;;;;;;;3.82;90.08;96344.90;1681985;85;21488;-82
2022/12/05 09:50:29;;;;;;;71.27;44.10;;;;;;;3.86;90.05;96340.64;1680973;85;21117;-78
2022/12/05 09:53:13;;;;;;;57.70;34.13;;;;;;;3.94;90.77;96335.13;1681138;85;21091;-77
2022/12/05 09:55:54;;;;;;;71.30;39.20;;;;;;;4.03;90.79;96324.87;1681535;85;21081;-76
2022/12/05 09:58:41;;;;;;;69.90;39.07;;;;;;;4.18;91.15;96333.81;1681420;85;20998;-82
2022/12/05 10:01:45;;;;;;;63.17;37.03;;;;;;;4.28;90.75;96315.73;1681550;85;21527;-81
2022/12/05 10:04:33;;;;;;;44.93;30.47;;;;;;;4.30;90.17;96312.70;1681749;85;21507;-84
2022/12/05 10:07:27;;;;;;;67.40;38.37;;;;;;;4.37;90.12;96314.13;1681501;85;21041;-76
2022/12/05 10:10:33;;;;;;;58.13;37.05;;;;;;;4.44;90.49;96310.77;1680828;84;21595;-76
2022/12/05 10:13:40;;;;;;;61.63;36.03;;;;;;;4.54;90.95;96307.02;1680878;85;21553;-74
2022/12/05 10:16:15;;;;;;;59.60;37.33;;;;;;;4.68;91.29;96299.38;1665087;86;21069;-75
2022/12/05 10:18:53;;;;;;;54.00;35.90;;;;;;;4.90;91.86;96297.98;1625564;88;21074;-69
2022/12/05 10:21:35;;;;;;;58.43;36.93;;;;;;;5.02;91.63;96301.20;1663504;84;21119;-70
2022/12/05 10:24:05;;;;;;;57.27;38.23;;;;;;;5.10;91.28;96296.95;1653571;87;21045;-70
2022/12/05 10:26:45;;;;;;;55.40;37.33;;;;;;;5.17;90.96;96300.55;1655878;85;21558;-72
2022/12/05 10:29:27;;;;;;;55.77;37.07;;;;;;;5.17;90.37;96294.00;1681220;85;21006;-72
2022/12/05 10:32:02;;;;;;;53.63;35.93;;;;;;;5.13;90.02;96295.68;1681829;85;21061;-69
2022/12/05 10:34:39;;;;;;;55.50;35.83;;;;;;;5.12;90.01;96297.86;1681810;85;20998;-70
2022/12/05 10:37:22;;;;;;;51.67;35.00;;;;;;;5.14;90.06;96296.15;1706407;84;21033;-69
2022/12/05 10:39:51;;;;;;;59.80;36.77;;;;;;;5.16;89.92;96304.87;1693437;84;21510;-67
2022/12/05 10:42:31;;;;;;;56.97;36.80;;;;;;;5.11;89.38;96293.91;1667553;86;21121;-69
2022/12/05 10:45:05;;;;;;;54.37;37.13;;;;;;;5.09;89.39;96296.92;1668095;86;21053;-70
2022/12/05 10:47:33;;;;;;;56.70;36.10;;;;;;;5.03;88.97;96300.33;1667043;86;21214;-72
2022/12/05 10:50:04;;;;;;;52.77;34.17;;;;;;;4.96;89.01;96299.39;1668119;86;21496;-68
2022/12/05 10:52:32;;;;;;;60.03;38.30;;;;;;;4.94;89.33;96299.79;1701739;84;21023;-70
2022/12/05 10:55:03;;;;;;;58.97;37.23;;;;;;;4.92;89.17;96290.16;1667709;86;21018;-75
2022/12/05 10:57:30;;;;;;;103.73;62.50;;;;;;;4.89;89.17;96292.31;1701787;84;20992;-76
2022/12/05 10:59:57;;;;;;;99.77;65.70;;;;;;;4.83;89.19;96293.94;1668459;86;21102;-76
2022/12/05 11:02:31;;;;;;;73.77;50.67;;;;;;;4.77;89.38;96285.16;1643076;86;21042;-74
2022/12/05 11:04:59;;;;;;;84.40;54.80;;;;;;;4.78;89.56;96282.97;1701700;84;21046;-74
2022/12/05 11:07:41;;;;;;;91.10;57.77;;;;;;;4.78;89.50;96281.67;1668018;86;21138;-73
2022/12/05 11:10:28;;;;;;;56.80;37.60;;;;;;;4.77;89.47;96278.62;1667003;86;21556;-73
2022/12/05 11:12:58;;;;;;;49.23;30.50;;;;;;;4.76;89.49;96286.02;1668310;86;21073;-73
2022/12/05 11:15:29;;;;;;;23.63;16.77;;;;;;;4.75;89.54;96285.55;1702030;84;21023;-73
2022/12/05 11:18:03;;;;;;;17.20;12.57;;;;;;;4.76;89.69;96282.50;1668169;86;21564;-73
2022/12/05 11:20:35;;;;;;;18.73;12.47;;;;;;;4.74;89.88;96279.89;1678725;85;21195;-73
2022/12/05 11:23:10;;;;;;;15.87;10.80;;;;;;;4.67;89.95;96274.55;1701118;84;21037;-73
2022/12/05 11:25:37;;;;;;;18.90;11.40;;;;;;;4.62;90.02;96280.13;1667539;86;21104;-73
2022/12/05 11:28:21;;;;;;;19.03;13.10;;;;;;;4.58;90.18;96275.70;1667480;86;21105;-74
2022/12/05 11:31:19;;;;;;;21.53;12.57;;;;;;;4.50;91.39;96276.89;1678689;85;21041;-73
2022/12/05 11:34:03;;;;;;;22.73;14.43;;;;;;;4.49;90.57;96269.91;1702036;84;21008;-73
2022/12/05 11:36:42;;;;;;;;;;;;;;;4.50;90.61;96269.05;1673398;86;21035;-73
2022/12/05 11:39:12;;;;;;;18.00;12.50;;;;;;;4.50;91.12;96262.08;1702111;83;20467;-73
2022/12/05 11:42:09;;;;;;;19.63;12.90;;;;;;;4.52;91.37;96261.68;1704209;84;20994;-73
2022/12/05 11:45:02;;;;;;;34.10;16.37;;;;;;;4.53;91.18;96268.66;1703970;84;21587;-73
2022/12/05 11:48:06;;;;;;;21.48;14.63;;;;;;;4.50;91.73;96264.69;1704510;84;21045;-73
2022/12/05 11:50:41;;;;;;;19.90;14.10;;;;;;;4.55;91.76;96270.00;1704119;84;21061;-73
2022/12/05 11:53:35;;;;;;;25.17;14.30;;;;;;;4.65;91.95;96261.88;1703622;84;21069;-73
2022/12/05 11:56:22;;;;;;;14.75;9.90;;;;;;;4.75;92.10;96260.72;1623988;84;21512;-73
2022/12/05 11:59:13;;;;;;;18.43;13.43;;;;;;;4.85;92.20;96256.50;1703316;83;21045;-73
2022/12/05 12:02:29;;;;;;;20.87;13.60;;;;;;;4.88;91.92;96259.59;1700821;84;21079;-73
2022/12/05 12:05:22;;;;;;;19.20;12.50;;;;;;;4.88;92.11;96253.05;1627811;88;21540;-73
2022/12/05 12:08:02;;;;;;;19.83;11.50;;;;;;;4.89;92.03;96249.56;1615021;88;21544;-73
2022/12/05 12:10:41;;;;;;;20.23;11.73;;;;;;;4.98;92.44;96247.09;1675546;84;21049;-73